Time;durP1;ratioP1;P1;durP2;ratioP2;P2;SDS_P1;SDS_P2;PMS_P1;PMS_P2;Temp;Humidity;BMP_temperature;BMP_pressure;BME280_temperature;BME280_humidity;BME280_pressure;Samples;Min_cycle;Max_cycle;Signal;HPM_P1;HPM_P2
2023/11/27 05:14:11;;;;;;;2.05;1.30;;;;;;;;;;7621674;19;20366;-75
2023/11/27 05:16:44;;;;;;;1.90;1.52;;;;;;;;;;7627538;19;20445;-73
2023/11/27 05:19:16;;;;;;;1.60;1.23;;;;;;;;;;7634362;19;20014;-73
2023/11/27 05:21:49;;;;;;;5.03;1.77;;;;;;;;;;7613899;19;20022;-72
2023/11/27 05:24:23;;;;;;;2.50;1.75;;;;;;;;;;7638092;19;21512;-73
2023/11/27 05:26:56;;;;;;;1.58;1.45;;;;;;;;;;7629784;19;20518;-73
2023/11/27 05:29:34;;;;;;;3.08;2.00;;;;;;;;;;7630611;19;20071;-73
2023/11/27 05:32:09;;;;;;;;;;;;;;;;;;7626642;19;20052;-73
2023/11/27 05:34:42;;;;;;;2.33;1.40;;;;;;;;;;7628273;19;19926;-73
2023/11/27 05:37:15;;;;;;;3.23;1.43;;;;;;;;;;7626887;19;20006;-73
2023/11/27 05:39:48;;;;;;;2.35;1.60;;;;;;;;;;7616630;19;20267;-73
2023/11/27 05:42:21;;;;;;;5.43;1.80;;;;;;;;;;7628338;19;20638;-73
2023/11/27 05:44:59;;;;;;;1.83;1.50;;;;;;;;;;7623675;19;20018;-73
2023/11/27 05:47:32;;;;;;;3.63;1.70;;;;;;;;;;7626737;19;20010;-72
2023/11/27 05:50:06;;;;;;;7.45;1.60;;;;;;;;;;7602340;19;20029;-73
2023/11/27 05:52:39;;;;;;;2.40;1.50;;;;;;;;;;7626308;19;20018;-73
2023/11/27 05:55:11;;;;;;;3.60;1.98;;;;;;;;;;7637141;19;20014;-74
2023/11/27 05:57:44;;;;;;;3.20;1.95;;;;;;;;;;7607199;19;20022;-73
2023/11/27 06:00:18;;;;;;;4.97;2.00;;;;;;;;;;7603886;19;20022;-73
2023/11/27 06:02:52;;;;;;;4.05;2.15;;;;;;;;;;7594121;19;20029;-72
2023/11/27 06:05:25;;;;;;;5.40;2.42;;;;;;;;;;7630941;19;20025;-73
2023/11/27 06:07:57;;;;;;;3.07;2.17;;;;;;;;;;7629324;19;20065;-73
2023/11/27 06:10:30;;;;;;;2.43;1.77;;;;;;;;;;7617496;19;20943;-73
2023/11/27 06:13:03;;;;;;;2.65;1.63;;;;;;;;;;7606194;19;21217;-72
2023/11/27 06:15:37;;;;;;;2.25;1.35;;;;;;;;;;7602266;19;20014;-73
2023/11/27 06:18:10;;;;;;;2.67;1.90;;;;;;;;;;7569196;19;20060;-72
2023/11/27 06:20:43;;;;;;;3.50;1.92;;;;;;;;;;7600271;19;20010;-72
2023/11/27 06:23:15;;;;;;;2.97;1.52;;;;;;;;;;7608031;19;20018;-73
2023/11/27 06:25:48;;;;;;;5.00;2.20;;;;;;;;;;7592755;19;20377;-72
2023/11/27 06:28:21;;;;;;;5.65;2.22;;;;;;;;;;7568441;19;20014;-74
2023/11/27 06:30:54;;;;;;;4.28;2.42;;;;;;;;;;7551774;19;20045;-70
2023/11/27 06:33:27;;;;;;;3.17;2.05;;;;;;;;;;7557923;19;20018;-70
2023/11/27 06:36:00;;;;;;;1.98;1.42;;;;;;;;;;7580494;19;20114;-70
2023/11/27 06:38:33;;;;;;;6.75;2.35;;;;;;;;;;7573752;19;20018;-70
2023/11/27 06:41:06;;;;;;;;;;;;;;;;;;7596002;19;20710;-70
2023/11/27 06:43:39;;;;;;;3.47;2.08;;;;;;;;;;7605212;19;19938;-70
2023/11/27 06:46:12;;;;;;;3.47;2.38;;;;;;;;;;7594093;19;20028;-71
2023/11/27 06:48:45;;;;;;;;;;;;;;;;;;7611057;19;20022;-70
2023/11/27 06:51:18;;;;;;;3.80;1.90;;;;;;;;;;7600183;19;19923;-71
2023/11/27 06:53:51;;;;;;;4.20;1.88;;;;;;;;;;7596211;19;20022;-70
2023/11/27 06:56:24;;;;;;;3.92;1.92;;;;;;;;;;7600213;19;20017;-70
2023/11/27 06:58:57;;;;;;;2.77;2.00;;;;;;;;;;7600568;19;20049;-69
2023/11/27 07:01:29;;;;;;;3.63;2.42;;;;;;;;;;7592000;19;20648;-70
2023/11/27 07:04:02;;;;;;;2.80;1.80;;;;;;;;;;7583779;19;20019;-70
2023/11/27 07:06:36;;;;;;;3.53;2.25;;;;;;;;;;7581688;19;20694;-72
2023/11/27 07:09:10;;;;;;;3.45;1.65;;;;;;;;;;7591109;19;20014;-70
2023/11/27 07:11:44;;;;;;;3.83;2.15;;;;;;;;;;7600306;19;20354;-71
2023/11/27 07:14:16;;;;;;;3.90;2.22;;;;;;;;;;7583598;19;20089;-71
2023/11/27 07:16:49;;;;;;;2.55;2.17;;;;;;;;;;7609260;19;20015;-70
2023/11/27 07:19:22;;;;;;;5.00;2.40;;;;;;;;;;7586311;19;20496;-71
2023/11/27 07:21:55;;;;;;;4.47;1.88;;;;;;;;;;7597663;19;20606;-70
2023/11/27 07:24:27;;;;;;;3.42;1.95;;;;;;;;;;7603484;19;20428;-71
2023/11/27 15:18:51;;;;;;;13.68;6.05;;;;;;;;;;7624912;19;20385;-71
2023/11/27 15:21:24;;;;;;;;;;;;;;;;;;7634911;19;20630;-71
2023/11/27 15:23:57;;;;;;;18.05;6.93;;;;;;;;;;7624425;19;19930;-68
2023/11/27 15:26:30;;;;;;;10.38;5.50;;;;;;;;;;7634608;19;20010;-72
2023/11/27 15:29:05;;;;;;;11.13;4.78;;;;;;;;;;7636796;19;20109;-72
2023/11/27 15:31:39;;;;;;;9.40;4.70;;;;;;;;;;7630365;19;20056;-72
2023/11/27 15:34:13;;;;;;;11.68;4.93;;;;;;;;;;7611302;19;20684;-71
2023/11/27 15:36:49;;;;;;;11.80;5.28;;;;;;;;;;7632863;19;20040;-71
2023/11/27 15:39:26;;;;;;;16.65;7.10;;;;;;;;;;7638886;19;20069;-71
2023/11/27 15:41:59;;;;;;;16.95;6.40;;;;;;;;;;7639903;19;20015;-71
2023/11/27 15:44:31;;;;;;;14.82;6.85;;;;;;;;;;7628958;19;20018;-70
2023/11/27 15:47:05;;;;;;;13.07;6.00;;;;;;;;;;7621572;19;20021;-70
2023/11/27 15:49:41;;;;;;;;;;;;;;;;;;7627734;19;20018;-71
2023/11/27 15:52:13;;;;;;;9.93;5.55;;;;;;;;;;7626996;19;19926;-70
2023/11/27 15:54:46;;;;;;;9.73;5.50;;;;;;;;;;7623630;19;20098;-71
2023/11/27 15:57:19;;;;;;;8.35;5.53;;;;;;;;;;7629487;19;20629;-71
2023/11/27 15:59:51;;;;;;;111.18;45.47;;;;;;;;;;7619257;19;20048;-71
2023/11/27 16:02:24;;;;;;;18.23;9.85;;;;;;;;;;7635041;19;20026;-71
2023/11/27 16:04:57;;;;;;;10.00;5.75;;;;;;;;;;7633092;19;20025;-71
2023/11/27 16:07:30;;;;;;;14.15;7.20;;;;;;;;;;7641506;19;20081;-72
2023/11/27 16:10:04;;;;;;;12.80;6.43;;;;;;;;;;7634759;19;20018;-71
2023/11/27 16:12:37;;;;;;;12.23;7.13;;;;;;;;;;7643060;19;20025;-72
2023/11/27 16:15:10;;;;;;;11.73;7.03;;;;;;;;;;7629997;19;20018;-71
2023/11/27 16:17:47;;;;;;;10.07;6.38;;;;;;;;;;7627631;19;20474;-71
2023/11/27 16:20:24;;;;;;;15.30;8.00;;;;;;;;;;7630180;19;20577;-71
2023/11/27 16:22:57;;;;;;;12.55;7.85;;;;;;;;;;7632008;19;23761;-71
2023/11/27 16:25:30;;;;;;;17.90;8.33;;;;;;;;;;7633945;19;20044;-70
2023/11/27 16:28:04;;;;;;;13.85;8.45;;;;;;;;;;7636492;19;20643;-70
2023/11/27 16:30:36;;;;;;;18.55;10.13;;;;;;;;;;7601301;19;20646;-71
2023/11/27 16:33:09;;;;;;;16.07;9.03;;;;;;;;;;7614895;19;20487;-71
2023/11/27 16:35:42;;;;;;;14.70;8.73;;;;;;;;;;7584687;19;20018;-71
2023/11/27 16:38:15;;;;;;;20.97;9.57;;;;;;;;;;7577757;19;20392;-71
2023/11/27 16:40:48;;;;;;;14.60;8.90;;;;;;;;;;7608450;19;20386;-70
2023/11/27 16:43:21;;;;;;;16.85;9.20;;;;;;;;;;7615491;19;20019;-73
2023/11/27 16:45:55;;;;;;;17.52;9.23;;;;;;;;;;7612459;19;20048;-72
2023/11/27 16:48:28;;;;;;;14.57;8.60;;;;;;;;;;7619322;19;20025;-71
2023/11/27 16:51:02;;;;;;;17.25;8.80;;;;;;;;;;7617145;19;20010;-71
2023/11/27 16:53:35;;;;;;;20.55;10.57;;;;;;;;;;7579422;19;20044;-70
2023/11/27 16:56:09;;;;;;;18.77;10.65;;;;;;;;;;7552670;19;20015;-70
2023/11/27 16:58:43;;;;;;;18.50;9.63;;;;;;;;;;7547169;19;20158;-70
2023/11/27 17:01:16;;;;;;;16.30;8.93;;;;;;;;;;7573994;19;20029;-71
2023/11/27 17:03:53;;;;;;;18.23;9.95;;;;;;;;;;7570141;19;20015;-72
2023/11/27 17:06:28;;;;;;;17.50;9.27;;;;;;;;;;7564796;19;20069;-72
2023/11/27 17:09:01;;;;;;;15.48;9.65;;;;;;;;;;7591332;19;20503;-73
2023/11/27 17:11:35;;;;;;;17.35;9.77;;;;;;;;;;7604008;19;20034;-72
2023/11/27 17:14:08;;;;;;;17.35;9.50;;;;;;;;;;7601928;19;20018;-73
2023/11/27 17:16:41;;;;;;;16.03;9.83;;;;;;;;;;7596386;19;20019;-71
2023/11/27 17:19:14;;;;;;;17.55;9.57;;;;;;;;;;7578880;19;20038;-72
2023/11/27 17:21:49;;;;;;;14.55;9.15;;;;;;;;;;7581107;19;20348;-72
2023/11/27 17:24:21;;;;;;;17.77;8.88;;;;;;;;;;7594456;19;20073;-73
2023/11/27 17:26:54;;;;;;;12.97;8.80;;;;;;;;;;7578188;19;20006;-71
2023/11/27 17:29:27;;;;;;;15.52;9.30;;;;;;;;;;7580352;19;20984;-71
2023/11/27 17:32:01;;;;;;;22.17;11.07;;;;;;;;;;7580549;19;20025;-70
2023/11/27 17:34:34;;;;;;;20.58;11.68;;;;;;;;;;7594690;19;20287;-71
2023/11/27 17:37:07;;;;;;;33.28;14.77;;;;;;;;;;7574617;19;20021;-71
2023/11/27 17:39:39;;;;;;;39.88;17.50;;;;;;;;;;7574832;19;20014;-70
2023/11/27 17:42:12;;;;;;;26.00;14.93;;;;;;;;;;7602237;19;20408;-71
2023/11/27 17:44:46;;;;;;;40.13;18.63;;;;;;;;;;7577982;19;20011;-69
2023/11/27 17:47:19;;;;;;;48.83;10.90;;;;;;;;;;7603962;19;20026;-72
2023/11/27 17:49:52;;;;;;;17.02;7.13;;;;;;;;;;7605660;19;20058;-73
2023/11/27 17:52:25;;;;;;;9.60;5.00;;;;;;;;;;7604555;19;20657;-70
2023/11/27 17:54:58;;;;;;;6.22;3.65;;;;;;;;;;7579952;19;20267;-74
2023/11/27 17:57:31;;;;;;;6.73;4.40;;;;;;;;;;7619517;19;20182;-74
2023/11/27 18:00:11;;;;;;;8.15;4.07;;;;;;;;;;7594695;19;20361;-77
2023/11/27 18:02:47;;;;;;;8.93;4.07;;;;;;;;;;7613589;19;20350;-72
2023/11/27 18:05:25;;;;;;;7.63;4.60;;;;;;;;;;7613224;19;20014;-74
2023/11/27 18:07:58;;;;;;;6.13;3.67;;;;;;;;;;7606721;19;20628;-74
2023/11/27 18:10:32;;;;;;;7.22;4.88;;;;;;;;;;7566079;19;20051;-72
2023/11/27 18:13:06;;;;;;;11.00;4.50;;;;;;;;;;7607276;19;20028;-74
2023/11/27 18:15:38;;;;;;;7.38;4.72;;;;;;;;;;7593577;19;20451;-73
2023/11/27 18:18:11;;;;;;;11.17;5.97;;;;;;;;;;7590920;19;20020;-73
2023/11/27 18:20:44;;;;;;;8.05;5.22;;;;;;;;;;7581414;19;20038;-74
2023/11/27 18:23:21;;;;;;;6.67;4.30;;;;;;;;;;7584289;19;20016;-74
2023/11/27 18:25:54;;;;;;;9.98;5.00;;;;;;;;;;7577384;19;20022;-74
2023/11/27 18:28:27;;;;;;;9.90;4.82;;;;;;;;;;7586051;19;20018;-74
2023/11/27 18:31:00;;;;;;;6.80;4.90;;;;;;;;;;7588354;19;21578;-73
2023/11/27 18:33:33;;;;;;;6.80;4.80;;;;;;;;;;7586712;19;20014;-73
2023/11/27 18:36:08;;;;;;;9.90;4.55;;;;;;;;;;7587818;19;20022;-73
2023/11/27 18:38:43;;;;;;;9.00;4.45;;;;;;;;;;7567690;19;20078;-73
2023/11/27 18:41:17;;;;;;;;;;;;;;;;;;7576074;19;20030;-73
2023/11/27 18:43:52;;;;;;;8.63;4.10;;;;;;;;;;7568316;19;19926;-73
2023/11/27 18:46:25;;;;;;;7.15;5.30;;;;;;;;;;7578016;19;20024;-73
2023/11/27 18:48:58;;;;;;;9.20;5.90;;;;;;;;;;7583573;19;20031;-73
2023/11/27 18:51:31;;;;;;;11.77;6.70;;;;;;;;;;7595377;19;20022;-75
2023/11/27 18:54:03;;;;;;;11.10;6.70;;;;;;;;;;7589187;19;20010;-72
2023/11/27 18:56:37;;;;;;;12.17;6.60;;;;;;;;;;7567669;19;20574;-73
2023/11/27 18:59:09;;;;;;;20.13;9.98;;;;;;;;;;7572878;19;20376;-73
2023/11/27 19:01:42;;;;;;;26.20;11.93;;;;;;;;;;7543510;19;20873;-74
2023/11/27 19:04:15;;;;;;;26.70;13.55;;;;;;;;;;7578549;19;20045;-74
2023/11/27 19:06:48;;;;;;;18.75;9.25;;;;;;;;;;7585143;19;20049;-74
2023/11/27 19:09:21;;;;;;;20.80;10.47;;;;;;;;;;7578647;19;20571;-74
2023/11/27 19:11:54;;;;;;;29.48;15.20;;;;;;;;;;7584688;19;20026;-74
2023/11/27 19:14:27;;;;;;;15.57;7.70;;;;;;;;;;7563250;19;20041;-73
2023/11/27 19:17:00;;;;;;;12.02;6.95;;;;;;;;;;7564318;19;20018;-72
2023/11/27 19:19:33;;;;;;;11.23;7.20;;;;;;;;;;7593523;19;20006;-72
2023/11/27 19:22:06;;;;;;;13.52;7.00;;;;;;;;;;7568703;19;20018;-72
2023/11/27 19:24:39;;;;;;;17.67;9.87;;;;;;;;;;7593197;19;20646;-72
2023/11/27 19:27:12;;;;;;;38.13;15.23;;;;;;;;;;7589587;19;20052;-72
2023/11/27 19:29:45;;;;;;;29.23;14.10;;;;;;;;;;7595430;19;20006;-74
2023/11/27 19:32:19;;;;;;;;;;;;;;;;;;7570310;19;20017;-72
2023/11/27 19:34:51;;;;;;;18.45;11.35;;;;;;;;;;7579914;19;21404;-72
2023/11/27 19:37:24;;;;;;;24.08;12.77;;;;;;;;;;7581331;19;20006;-72
2023/11/27 19:39:57;;;;;;;55.33;26.07;;;;;;;;;;7587238;19;20015;-72
2023/11/27 19:42:31;;;;;;;46.73;22.53;;;;;;;;;;6564713;19;10001043;-72
2023/11/27 19:45:05;;;;;;;38.13;18.10;;;;;;;;;;7576431;19;20026;-72
2023/11/27 19:47:38;;;;;;;57.58;25.08;;;;;;;;;;7584998;19;20091;-72
2023/11/27 19:50:12;;;;;;;56.10;26.83;;;;;;;;;;7551185;19;20055;-72
2023/11/27 19:52:46;;;;;;;39.25;19.90;;;;;;;;;;7563370;19;20021;-72
2023/11/27 19:55:19;;;;;;;16.98;9.13;;;;;;;;;;7573486;19;20026;-72
2023/11/27 19:57:54;;;;;;;13.73;6.40;;;;;;;;;;7575347;19;20010;-72
2023/11/27 20:00:28;;;;;;;9.98;5.95;;;;;;;;;;7560038;19;20013;-72
2023/11/27 20:03:04;;;;;;;14.15;7.40;;;;;;;;;;7586407;19;20042;-71
2023/11/27 20:05:39;;;;;;;10.30;5.70;;;;;;;;;;7600447;19;20018;-71
2023/11/27 20:08:13;;;;;;;9.77;5.28;;;;;;;;;;7591805;19;21934;-72
2023/11/27 20:10:46;;;;;;;10.13;6.15;;;;;;;;;;7592790;19;20040;-73
2023/11/27 20:13:20;;;;;;;10.07;5.03;;;;;;;;;;7583901;19;20018;-73
2023/11/27 20:15:53;;;;;;;11.25;4.63;;;;;;;;;;7586631;19;20018;-72
2023/11/27 20:18:29;;;;;;;6.57;4.57;;;;;;;;;;7586800;19;20021;-72
2023/11/27 20:21:02;;;;;;;12.07;6.20;;;;;;;;;;7588152;19;21005;-73
2023/11/27 20:23:35;;;;;;;12.25;5.68;;;;;;;;;;7570301;19;20018;-73
2023/11/27 20:26:08;;;;;;;10.67;5.20;;;;;;;;;;7590140;19;20015;-73
2023/11/27 20:28:41;;;;;;;13.98;6.05;;;;;;;;;;7592283;19;20388;-73
2023/11/27 20:31:14;;;;;;;10.07;4.93;;;;;;;;;;7586443;19;20018;-72
2023/11/27 20:34:05;;;;;;;13.05;5.15;;;;;;;;;;7587016;19;20059;-72
2023/11/27 20:36:38;;;;;;;12.85;6.75;;;;;;;;;;7577887;19;22019;-72
2023/11/27 20:39:11;;;;;;;19.20;7.13;;;;;;;;;;7566675;19;20014;-72
2023/11/27 20:41:44;;;;;;;13.50;6.90;;;;;;;;;;7559834;19;20039;-72
2023/11/27 20:44:17;;;;;;;14.65;6.50;;;;;;;;;;7564599;19;20010;-72
